地図

経路データ

SID SEASON NUMBER BASIN SUBBASIN NAME ISO_TIME NATURE LAT LON WMO_WIND WMO_PRES WMO_AGENCY TRACK_TYPE DIST2LAND LANDFALL IFLAG USA_AGENCY USA_ATCF_ID USA_LAT USA_LON USA_RECORD USA_STATUS USA_WIND USA_PRES USA_SSHS USA_R34_NE USA_R34_SE USA_R34_SW USA_R34_NW USA_R50_NE USA_R50_SE USA_R50_SW USA_R50_NW USA_R64_NE USA_R64_SE USA_R64_SW USA_R64_NW USA_POCI USA_ROCI USA_RMW USA_EYE TOKYO_LAT TOKYO_LON TOKYO_GRADE TOKYO_WIND TOKYO_PRES TOKYO_R50_DIR TOKYO_R50_LONG TOKYO_R50_SHORT TOKYO_R30_DIR TOKYO_R30_LONG TOKYO_R30_SHORT TOKYO_LAND CMA_LAT CMA_LON CMA_CAT CMA_WIND CMA_PRES HKO_LAT HKO_LON HKO_CAT HKO_WIND HKO_PRES NEWDELHI_LAT NEWDELHI_LON NEWDELHI_GRADE NEWDELHI_WIND NEWDELHI_PRES NEWDELHI_CI NEWDELHI_DP NEWDELHI_POCI REUNION_LAT REUNION_LON REUNION_TYPE REUNION_WIND REUNION_PRES REUNION_TNUM REUNION_CI REUNION_RMW REUNION_R34_NE REUNION_R34_SE REUNION_R34_SW REUNION_R34_NW REUNION_R50_NE REUNION_R50_SE REUNION_R50_SW REUNION_R50_NW REUNION_R64_NE REUNION_R64_SE REUNION_R64_SW REUNION_R64_NW BOM_LAT BOM_LON BOM_TYPE BOM_WIND BOM_PRES BOM_TNUM BOM_CI BOM_RMW BOM_R34_NE BOM_R34_SE BOM_R34_SW BOM_R34_NW BOM_R50_NE BOM_R50_SE BOM_R50_SW BOM_R50_NW BOM_R64_NE BOM_R64_SE BOM_R64_SW BOM_R64_NW BOM_ROCI BOM_POCI BOM_EYE BOM_POS_METHOD BOM_PRES_METHOD NADI_LAT NADI_LON NADI_CAT NADI_WIND NADI_PRES WELLINGTON_LAT WELLINGTON_LON WELLINGTON_WIND WELLINGTON_PRES DS824_LAT DS824_LON DS824_STAGE DS824_WIND DS824_PRES TD9636_LAT TD9636_LON TD9636_STAGE TD9636_WIND TD9636_PRES TD9635_LAT TD9635_LON TD9635_WIND TD9635_PRES TD9635_ROCI NEUMANN_LAT NEUMANN_LON NEUMANN_CLASS NEUMANN_WIND NEUMANN_PRES MLC_LAT MLC_LON MLC_CLASS MLC_WIND MLC_PRES USA_GUST BOM_GUST BOM_GUST_PER REUNION_GUST REUNION_GUST_PER USA_SEAHGT USA_SEARAD_NE USA_SEARAD_SE USA_SEARAD_SW USA_SEARAD_NW STORM_SPEED STORM_DIR
1866032S19072 1866 2 SI MM NOT_NAMED 1866-02-01 06:00:00 NR -19.3000 72.0000 reunion main 1489 1467 _____O________ -1 -19.3000 72.0000 99 9.90000 3 245
1866032S19072 1866 2 SI MM NOT_NAMED 1866-02-01 09:00:00 NR -19.3716 71.8315 main 1467 1456 _____P________ -1 -19.3716 71.8315 99 4 246
1866032S19072 1866 2 SI MM NOT_NAMED 1866-02-01 12:00:00 NR -19.4483 71.6553 main 1456 1434 _____P________ -1 -19.4483 71.6553 99 4 245
1866032S19072 1866 2 SI MM NOT_NAMED 1866-02-01 15:00:00 NR -19.5352 71.4636 main 1434 1412 _____P________ -1 -19.5352 71.4636 99 4 244
1866032S19072 1866 2 SI MM NOT_NAMED 1866-02-01 18:00:00 NR -19.6373 71.2487 main 1402 1379 _____P________ -1 -19.6373 71.2487 99 5 243
1866032S19072 1866 2 SI MM NOT_NAMED 1866-02-01 21:00:00 NR -19.7599 71.0029 main 1379 1347 _____P________ -1 -19.7599 71.0029 99 6 242
1866032S19072 1866 2 SI MM NOT_NAMED 1866-02-02 00:00:00 NR -19.9079 70.7181 main 1347 1314 _____P________ -1 -19.9079 70.7181 99 7 241
1866032S19072 1866 2 SI MM NOT_NAMED 1866-02-02 03:00:00 NR -20.0863 70.3866 main 1314 1271 _____P________ -1 -20.0863 70.3866 99 8 240
1866032S19072 1866 2 SI MM NOT_NAMED 1866-02-02 06:00:00 NR -20.3000 70.0000 reunion main 1271 1229 _____O________ -1 -20.3000 70.0000 99 9.90000 9 239
1866032S19072 1866 2 SI MM NOT_NAMED 1866-02-02 09:00:00 NR -20.5524 69.5530 main 1229 1177 _____P________ -1 -20.5524 69.5530 99 10 239
1866032S19072 1866 2 SI MM NOT_NAMED 1866-02-02 12:00:00 NR -20.8419 69.0517 main 1177 1116 _____P________ -1 -20.8419 69.0517 99 12 238
1866032S19072 1866 2 SI MM NOT_NAMED 1866-02-02 15:00:00 NR -21.1656 68.5048 main 1116 1067 _____P________ -1 -21.1656 68.5048 99 13 237
1866032S19072 1866 2 SI MM NOT_NAMED 1866-02-02 18:00:00 NR -21.5205 67.9214 main 1057 1001 _____P________ -1 -21.5205 67.9214 99 13 236
1866032S19072 1866 2 SI MM NOT_NAMED 1866-02-02 21:00:00 NR -21.9039 67.3102 main 1001 948 _____P________ -1 -21.9039 67.3102 99 14 235
1866032S19072 1866 2 SI MM NOT_NAMED 1866-02-03 00:00:00 NR -22.3132 66.6802 main 948 899 _____P________ -1 -22.3132 66.6802 99 14 234
1866032S19072 1866 2 SI MM NOT_NAMED 1866-02-03 03:00:00 NR -22.7460 66.0405 main 889 848 _____P________ -1 -22.7460 66.0405 99 15 233
1866032S19072 1866 2 SI MM NOT_NAMED 1866-02-03 06:00:00 NR -23.2000 65.4000 reunion main 848 809 _____O________ -1 -23.2000 65.4000 99 9.90000 15 231
1866032S19072 1866 2 SI MM NOT_NAMED 1866-02-03 09:00:00 NR -23.7121 64.7322 main 804 776 _____P________ -1 -23.7121 64.7322 99 16 230
1866032S19072 1866 2 SI MM NOT_NAMED 1866-02-03 12:00:00 NR -24.2565 64.0470 main 774 756 _____P________ -1 -24.2565 64.0470 99 17 229
1866032S19072 1866 2 SI MM NOT_NAMED 1866-02-03 15:00:00 NR -24.8169 63.3584 main 756 741 _____P________ -1 -24.8169 63.3584 99 17 228
1866032S19072 1866 2 SI MM NOT_NAMED 1866-02-03 18:00:00 NR -25.3770 62.6810 main 749 741 _____P________ -1 -25.3770 62.6810 99 16 227
1866032S19072 1866 2 SI MM NOT_NAMED 1866-02-03 21:00:00 NR -25.9209 62.0302 main 746 746 _____P________ -1 -25.9209 62.0302 99 16 227
1866032S19072 1866 2 SI MM NOT_NAMED 1866-02-04 00:00:00 NR -26.4330 61.4220 main 759 759 _____P________ -1 -26.4330 61.4220 99 14 227
1866032S19072 1866 2 SI MM NOT_NAMED 1866-02-04 03:00:00 NR -26.8977 60.8729 main 785 781 _____P________ -1 -26.8977 60.8729 99 13 226
1866032S19072 1866 2 SI MM NOT_NAMED 1866-02-04 06:00:00 NR -27.3000 60.4000 reunion main 807 807 _____O________ -1 -27.3000 60.4000 99 9.90000 11 226
1866032S19072 1866 2 SI MM NOT_NAMED 1866-02-04 09:00:00 NR -27.6290 60.0159 main 822 822 _____P________ -1 -27.6290 60.0159 99 8 226
1866032S19072 1866 2 SI MM NOT_NAMED 1866-02-04 12:00:00 NR -27.8908 59.7145 main 835 835 _____P________ -1 -27.8908 59.7145 99 7 225
1866032S19072 1866 2 SI MM NOT_NAMED 1866-02-04 15:00:00 NR -28.0955 59.4848 main 845 840 _____P________ -1 -28.0955 59.4848 99 5 224
1866032S19072 1866 2 SI MM NOT_NAMED 1866-02-04 18:00:00 NR -28.2529 59.3152 main 856 851 _____P________ -1 -28.2529 59.3152 99 4 223
1866032S19072 1866 2 SI MM NOT_NAMED 1866-02-04 21:00:00 NR -28.3725 59.1939 main 862 857 _____P________ -1 -28.3725 59.1939 99 3 220
1866032S19072 1866 2 SI MM NOT_NAMED 1866-02-05 00:00:00 NR -28.4639 59.1090 main 867 867 _____P________ -1 -28.4639 59.1090 99 2 217
1866032S19072 1866 2 SI MM NOT_NAMED 1866-02-05 03:00:00 NR -28.5367 59.0484 main 863 863 _____P________ -1 -28.5367 59.0484 99 2 216
1866032S19072 1866 2 SI MM NOT_NAMED 1866-02-05 06:00:00 NR -28.6000 59.0000 reunion main 874 _____O________ -1 -28.6000 59.0000 99 9.90000 2 217

IBTrACS Databaseについて

本データベースは、米国NOAAが公開する1842年以降の世界の熱帯低気圧のベストトラックデータアーカイブInternational Best Track Archive for Climate Stewardship (IBTrACS)を、ウェブで閲覧しやすい形式に変換したものです。

最終更新日:2021-11-26